Flight Track Log - Related Links

Times and Time Zones

All times are in EDT time to prevent confusion due to time zone crossing. See the FFT532 flight status page for this flight to view local times or setup timezone preferences in your user account.


Time Position Orientation Groundspeed Altitude Reporting Facility
EDT Latitude Longitude Course Direction KTS MPH feet Rate Location/Type
Wed 09:28:54 AM 39.8000 -104.6167 90° East 204 235 7,000  Level Denver TRACON
Wed 09:29:54 AM 39.7333 -104.5500 142° Southeast 269 310 8,600 2,100 Climbing Denver TRACON
Wed 09:30:54 AM 39.7167 -104.4500 102° East 305 351 11,200 2,474 Climbing Denver TRACON
Wed 09:31:48 AM 39.7333 -104.3500 78° East 322 371 13,300 2,028 Climbing Denver TRACON
Wed 09:33:16 AM 39.7722 -104.1753 74° East 355 409 16,000 1,852 Climbing Denver Center
Wed 09:34:00 AM 39.8667 -103.7888 90° East  Level FlightAware Approximate
Wed 09:34:17 AM 39.8050 -104.0439 72° East 380 437 17,900  Level Denver Center
Wed 09:35:18 AM 39.8311 -103.9411 72° East 390 449 18,600 1,122 Climbing Denver Center
Wed 09:36:20 AM 39.8728 -103.7711 72° East 401 461 20,200 1,415 Climbing Denver Center
Wed 09:37:21 AM 39.8950 -103.6336 78° East 394 453 21,500 1,279 Climbing Denver Center
Wed 09:38:22 AM 39.9114 -103.4853 82° East 411 473 22,800 738 Climbing Denver Center
Wed 09:39:23 AM 39.9286 -103.3319 82° East 425 489 23,000 244 Climbing Denver Center
Wed 09:40:25 AM 39.9464 -103.1794 81° East 427 491 23,300 978 Climbing Denver Center
Wed 09:41:38 AM 39.9669 -102.9933 82° East 434 499 25,200 1,479 Climbing Denver Center
Wed 09:42:51 AM 39.9875 -102.8017 82° East 443 510 26,900 1,244 Climbing Denver Center
Wed 09:43:53 AM 40.0072 -102.6133 82° East 465 535 28,000 1,220 Climbing Denver Center
Wed 09:44:54 AM 40.0278 -102.4208 82° East 481 554 29,400 1,328 Climbing Denver Center
Wed 09:45:55 AM 40.0447 -102.2525 82° East 489 563 30,700 1,561 Climbing Denver Center
Wed 09:46:57 AM 40.0653 -102.0600 82° East 481 554 32,600 1,122 Climbing Denver Center
Wed 09:47:58 AM 40.0758 -101.8908 85° East 489 563 33,000 197 Climbing Denver Center
Wed 09:48:59 AM 40.0722 -101.7181 92° East 497 572 33,000 341 Level Denver Center
Wed 09:50:01 AM 40.0703 -101.5161 91° East 499 574 33,700 829 Climbing Denver Center
Wed 09:51:02 AM 40.0867 -101.3458 83° East 500 575 34,700 639 Climbing Denver Center
Wed 09:52:03 AM 40.1006 -101.2019 83° East 501 577 35,000 148 Climbing Denver Center
Wed 09:53:04 AM 40.1208 -101.0036 82° East 497 572 35,000  Level Denver Center
Wed 09:54:06 AM 40.1397 -100.8039 83° East 498 573 35,000  Level Denver Center
Wed 09:55:07 AM 40.1592 -100.6056 83° East 496 571 35,000  Level Denver Center
Wed 09:56:09 AM 40.1750 -100.4333 83° East 500 575 35,000 585 Level Denver Center
Wed 09:57:10 AM 40.1936 -100.2336 83° East 499 574 36,200 984 Climbing Denver Center
Wed 09:58:11 AM 40.2086 -100.0669 83° East 491 565 37,000 390 Climbing Denver Center
Wed 09:59:13 AM 40.2256 -99.8789 83° East 485 558 37,000  Level Denver Center
Wed 10:00:14 AM 40.2406 -99.7047 84° East 483 556 37,000  Level Denver Center
Wed 10:01:16 AM 40.2561 -99.5314 83° East 482 555 37,000  Level Denver Center
Wed 10:02:17 AM 40.2703 -99.3600 84° East 477 549 37,000  Level Denver Center
Wed 10:03:31 AM 40.2842 -99.1875 84° East 479 551 37,000 42 Level Denver Center
Wed 10:04:40 AM 40.3053 -98.9469 83° East 481 554 37,100 46 Climbing Minneapolis Center
Wed 10:05:42 AM 40.3181 -98.7739 84° East 481 554 37,100 -48 Level Minneapolis Center
Wed 10:06:44 AM 40.3319 -98.6000 84° East 483 556 37,000 -48 Descending Minneapolis Center
Wed 10:07:46 AM 40.3481 -98.3914 84° East 483 556 37,000  Level Minneapolis Center
Wed 10:08:48 AM 40.3606 -98.2181 85° East 481 554 37,000  Level Minneapolis Center
Wed 10:09:49 AM 40.3733 -98.0436 84° East 483 556 37,000  Level Minneapolis Center
Wed 10:10:51 AM 40.3861 -97.8697 84° East 482 555 37,000  Level Minneapolis Center
Wed 10:11:53 AM 40.3983 -97.6964 85° East 481 554 37,000  Level Minneapolis Center
Wed 10:12:55 AM 40.4078 -97.5581 85° East 479 551 37,000  Level Minneapolis Center
Wed 10:13:57 AM 40.4225 -97.3392 85° East 478 550 37,000  Level Minneapolis Center
Wed 10:14:59 AM 40.4333 -97.1633 85° East 482 555 37,000  Level Minneapolis Center
Wed 10:16:01 AM 40.4469 -96.9542 85° East 483 556 37,000  Level Minneapolis Center
Wed 10:17:03 AM 40.4569 -96.7775 86° East 484 557 37,000  Level Minneapolis Center
Wed 10:18:05 AM 40.4686 -96.6017 85° East 486 559 37,000  Level Minneapolis Center
Wed 10:19:07 AM 40.4792 -96.4253 85° East 487 560 37,000  Level Minneapolis Center
Wed 10:20:10 AM 40.4894 -96.2489 86° East 487 560 37,000  Level Minneapolis Center
Wed 10:21:12 AM 40.5133 -96.0383 81° East 487 560 37,000  Level Minneapolis Center
Wed 10:22:14 AM 40.5367 -95.8636 80° East 489 563 37,000  Level Minneapolis Center
Wed 10:23:16 AM 40.5581 -95.6903 81° East 487 560 37,000  Level Minneapolis Center
Wed 10:24:18 AM 40.5800 -95.5156 81° East 486 559 37,000  Level Minneapolis Center
Wed 10:25:20 AM 40.6019 -95.3414 81° East 486 559 37,000  Level Minneapolis Center
Wed 10:26:22 AM 40.6228 -95.1692 81° East 484 557 37,000  Level Minneapolis Center
Wed 10:27:24 AM 40.6478 -94.9608 81° East 483 556 37,000  Level Minneapolis Center
Wed 10:28:26 AM 40.6686 -94.7889 81° East 481 554 37,000  Level Minneapolis Center
Wed 10:29:28 AM 40.6889 -94.6133 81° East 483 556 37,000  Level Minneapolis Center
Wed 10:30:30 AM 40.7083 -94.4419 81° East 486 559 37,000  Level Minneapolis Center
Wed 10:31:32 AM 40.7292 -94.2683 81° East 484 557 37,000  Level Minneapolis Center
Wed 10:32:34 AM 40.7539 -94.0589 81° East 485 558 37,000  Level Minneapolis Center
Wed 10:33:36 AM 40.7719 -93.8861 82° East 484 557 37,000  Level Minneapolis Center
Wed 10:34:38 AM 40.7883 -93.7125 83° East 481 554 37,000  Level Minneapolis Center
Wed 10:35:40 AM 40.8081 -93.5364 82° East 485 558 37,000  Level Minneapolis Center
Wed 10:36:46 AM 40.8325 -93.3225 81° East 487 560 37,000  Level Chicago Center
Wed 10:37:48 AM 40.8500 -93.1431 83° East 492 566 37,000  Level Chicago Center
Wed 10:38:50 AM 40.8683 -92.9636 82° East 494 568 37,000 -50 Level Chicago Center
Wed 10:39:48 AM 40.8875 -92.7847 82° East 497 572 36,900 -950 Descending Minneapolis Center
Wed 10:40:50 AM 40.9050 -92.6025 83° East 499 574 35,100 -1,406 Descending Minneapolis Center
Wed 10:41:56 AM 40.9219 -92.4239 83° East 494 568 33,900 -1,125 Descending Chicago Center
Wed 10:42:58 AM 40.9422 -92.2183 82° East 476 548 32,700 -1,065 Descending Chicago Center
Wed 10:44:00 AM 40.9581 -92.0497 83° East 467 537 31,700 -968 Descending Chicago Center
Wed 10:45:02 AM 40.9744 -91.8811 83° East 466 536 30,700 -919 Descending Chicago Center
Wed 10:46:04 AM 40.9894 -91.7094 83° East 472 543 29,800 -919 Descending Chicago Center
Wed 10:47:06 AM 41.0053 -91.5219 84° East 496 571 28,800 -871 Descending Chicago Center
Wed 10:48:08 AM 41.0214 -91.3419 83° East 493 567 28,000 -1,056 Descending Chicago Center
Wed 10:49:11 AM 41.0392 -91.1303 84° East 482 555 26,600 -1,248 Descending Chicago Center
Wed 10:50:13 AM 41.0525 -90.9597 84° East 471 542 25,400 -1,161 Descending Chicago Center
Wed 10:51:15 AM 41.0686 -90.7917 83° East 463 533 24,200 -1,161 Descending Chicago Center
Wed 10:52:17 AM 41.0817 -90.6261 84° East 451 519 23,000 -1,161 Descending Chicago Center
Wed 10:53:19 AM 41.0947 -90.4667 84° East 436 502 21,800 -1,161 Descending Chicago Center
Wed 10:54:21 AM 41.1069 -90.3111 84° East 425 489 20,600 -1,161 Descending Chicago Center
Wed 10:55:23 AM 41.1181 -90.1561 85° East 416 479 19,400 -1,306 Descending Chicago Center
Wed 10:56:25 AM 41.1328 -89.9739 84° East 417 480 17,900 -1,306 Descending Chicago Center
Wed 10:57:27 AM 41.1428 -89.8236 85° East 409 471 16,700 -1,113 Descending Chicago Center
Wed 10:58:29 AM 41.1550 -89.6772 84° East 397 457 15,600 -823 Descending Chicago Center
Wed 10:59:31 AM 41.1767 -89.5361 78° East 390 449 15,000 -532 Descending Chicago Center
Wed 11:00:33 AM 41.2103 -89.3992 72° East 387 445 14,500 -484 Descending Chicago Center
Wed 11:01:35 AM 41.2447 -89.2636 71° East 387 445 14,000 -532 Descending Chicago Center
Wed 11:02:37 AM 41.2811 -89.1131 72° East 379 436 13,400 -1,113 Descending Chicago Center
Wed 11:03:39 AM 41.3147 -88.9831 71° East 375 432 11,700 -1,452 Descending Chicago Center
Wed 11:04:41 AM 41.3461 -88.8558 72° East 365 420 10,400 -1,113 Descending Chicago Center
Wed 11:05:43 AM 41.3758 -88.7403 71° East 336 387 9,400 -1,122 Descending Chicago Center
Wed 11:06:44 AM 41.4025 -88.6319 72° East 314 361 8,100 -927 Descending Chicago Center
Wed 11:07:46 AM 41.4342 -88.5053 72° East 304 350 7,500 -532 Descending Chicago Center
Wed 11:08:48 AM 41.4608 -88.3986 72° East 304 350 7,000 -435 Descending Chicago Center
Wed 11:09:50 AM 41.4867 -88.2933 72° East 300 345 6,600 -435 Descending Chicago Center
Wed 11:10:52 AM 41.5114 -88.1881 73° East 298 343 6,100 -532 Descending Chicago Center
Wed 11:11:54 AM 41.5394 -88.0844 70° East 296 341 5,500 -537 Descending Chicago Center
Wed 11:12:55 AM 41.5789 -87.9894 61° Northeast 290 334 5,000 -780 Descending Chicago Center
Wed 11:13:57 AM 41.6147 -87.8986 62° Northeast 282 325 3,900 -919 Descending Chicago Center
Wed 11:14:59 AM 41.6478 -87.8189 61° Northeast 262 302 3,100 -774 Descending Chicago Center
Wed 11:16:01 AM 41.6847 -87.7400 58° Northeast 227 261 2,300 -581 Descending Chicago Center
Wed 11:17:03 AM 41.7275 -87.6978 36° Northeast 205 236 1,900 -581 Descending Chicago Center
Wed 11:18:05 AM 41.7622 -87.7217 333° Northwest 168 193 1,100 -532 Descending Chicago Center
Wed 11:19:07 AM 41.7850 -87.7531 314° West 155 178 800 -290 Descending Chicago Center

Login

Don't have an account? Register now (free) for customized features, flight alerts, and more!